Time;durP1;ratioP1;P1;durP2;ratioP2;P2;SDS_P1;SDS_P2;PMS_P1;PMS_P2;Temp;Humidity;BMP_temperature;BMP_pressure;BME280_temperature;BME280_humidity;BME280_pressure;Samples;Min_cycle;Max_cycle;Signal;HPM_P1;HPM_P2
2022/01/10 00:00:57;;;;;;;27.33;12.07;;;;;;;2.33;100.00;100491.44;6215859;23;20027;-86
2022/01/10 00:03:36;;;;;;;23.40;13.60;;;;;;;2.35;100.00;100489.50;6240124;22;20613;-87
2022/01/10 00:06:12;;;;;;;32.28;15.20;;;;;;;2.36;100.00;100490.34;6216036;23;20024;-87
2022/01/10 00:08:50;;;;;;;24.17;13.68;;;;;;;2.32;100.00;100488.91;6215467;22;20327;-88
2022/01/10 00:11:16;;;;;;;28.15;16.33;;;;;;;2.35;100.00;100497.44;6215836;23;20048;-88
2022/01/10 00:13:44;;;;;;;30.38;14.48;;;;;;;2.27;100.00;100491.88;6215312;22;20035;-87
2022/01/10 00:16:11;;;;;;;34.60;16.63;;;;;;;2.33;100.00;100501.16;6241431;23;20023;-87
2022/01/10 00:18:38;;;;;;;29.17;14.88;;;;;;;2.33;100.00;100512.63;6215458;22;20012;-87
2022/01/10 00:21:08;;;;;;;28.58;13.65;;;;;;;2.31;100.00;100514.53;6215249;23;20020;-87
2022/01/10 00:23:35;;;;;;;30.75;15.77;;;;;;;2.32;100.00;100513.56;6241082;22;20065;-87
2022/01/10 00:26:01;;;;;;;31.10;16.58;;;;;;;2.31;100.00;100513.72;6240693;23;20008;-87
2022/01/10 00:28:27;;;;;;;35.17;16.58;;;;;;;2.26;100.00;100514.88;6265495;22;20047;-86
2022/01/10 00:30:53;;;;;;;27.45;14.40;;;;;;;2.18;100.00;100519.06;6240758;22;20019;-87
2022/01/10 00:33:19;;;;;;;32.75;15.00;;;;;;;2.13;100.00;100524.75;6242850;22;20150;-87
2022/01/10 00:35:44;;;;;;;33.58;17.63;;;;;;;2.13;100.00;100526.53;6239476;22;20054;-87
2022/01/10 00:38:10;;;;;;;28.35;15.98;;;;;;;2.07;100.00;100532.28;6241395;22;20540;-88
2022/01/10 00:40:37;;;;;;;36.45;17.05;;;;;;;1.99;100.00;100538.19;6263982;22;20022;-87
2022/01/10 00:43:08;;;;;;;34.50;19.05;;;;;;;1.97;100.00;100535.63;6241164;22;20019;-87
2022/01/10 00:45:34;;;;;;;35.75;19.73;;;;;;;1.91;100.00;100541.38;6265030;22;20016;-87
2022/01/10 00:48:02;;;;;;;33.80;16.90;;;;;;;1.88;100.00;100544.25;6240796;23;20114;-87
2022/01/10 00:50:41;;;;;;;32.03;16.45;;;;;;;1.87;100.00;100545.22;6238870;22;20442;-88
2022/01/10 00:53:08;;;;;;;35.00;17.60;;;;;;;1.83;100.00;100556.16;6266153;22;20043;-88
2022/01/10 00:55:35;;;;;;;35.75;18.35;;;;;;;1.80;100.00;100557.22;6238351;22;20066;-88
2022/01/10 00:58:00;;;;;;;33.00;18.55;;;;;;;1.76;100.00;100563.69;6214458;23;20012;-87
2022/01/10 01:00:38;;;;;;;40.25;19.73;;;;;;;1.75;100.00;100570.78;6214380;23;20050;-88
2022/01/10 01:03:06;;;;;;;34.55;18.42;;;;;;;1.74;100.00;100568.25;6241080;22;20034;-87
2022/01/10 01:05:38;;;;;;;36.50;20.02;;;;;;;1.70;100.00;100572.94;6214562;22;20016;-87
2022/01/10 01:08:06;;;;;;;37.88;19.45;;;;;;;1.60;100.00;100577.19;6242523;22;20038;-86
2022/01/10 01:13:25;;;;;;;33.65;20.27;;;;;;;1.49;100.00;100585.91;6218109;23;20070;-87
2022/01/10 01:24:10;;;;;;;39.03;22.40;;;;;;;1.32;100.00;100610.94;6221255;23;20027;-87
2022/01/10 01:26:43;;;;;;;43.78;25.30;;;;;;;1.29;100.00;100612.94;6214824;22;20087;-87
2022/01/10 01:29:12;;;;;;;39.08;23.00;;;;;;;1.19;100.00;100617.19;6191408;23;20008;-87
2022/01/10 01:31:43;;;;;;;45.28;24.30;;;;;;;1.11;100.00;100630.94;6233609;22;20047;-87
2022/01/10 01:34:12;;;;;;;39.40;23.27;;;;;;;0.98;100.00;100633.59;6240917;23;20346;-87
2022/01/10 01:36:47;;;;;;;;;;;;;;;0.78;100.00;100642.91;6215570;22;20075;-87
2022/01/10 01:39:21;;;;;;;40.10;21.27;;;;;;;0.67;100.00;100646.28;6215217;23;19960;-86
2022/01/10 01:42:06;;;;;;;32.80;21.52;;;;;;;0.63;100.00;100650.09;6241442;22;20087;-86
2022/01/10 01:44:33;;;;;;;50.10;28.13;;;;;;;0.64;100.00;100657.03;6239645;22;20016;-87
2022/01/10 01:47:03;;;;;;;44.50;23.50;;;;;;;0.48;100.00;100664.28;6190376;23;20009;-86
2022/01/10 01:49:35;;;;;;;44.42;23.42;;;;;;;0.50;100.00;100667.69;6239362;22;20047;-87
2022/01/10 01:52:03;;;;;;;46.33;29.10;;;;;;;0.55;100.00;100672.69;6240581;23;20458;-86
2022/01/10 01:54:38;;;;;;;45.78;27.73;;;;;;;0.55;100.00;100672.69;6240042;22;20073;-86
2022/01/10 01:57:05;;;;;;;50.67;28.30;;;;;;;0.52;100.00;100679.00;6215255;23;20012;-87
2022/01/10 01:59:35;;;;;;;48.53;24.85;;;;;;;0.44;100.00;100689.22;6189355;22;20016;-86
2022/01/10 02:02:03;;;;;;;;;;;;;;;0.48;100.00;100688.06;6242576;22;20053;-87
2022/01/10 02:04:34;;;;;;;55.00;30.58;;;;;;;0.39;100.00;100688.69;6239551;22;19911;-86
2022/01/10 02:07:00;;;;;;;53.58;29.38;;;;;;;0.39;100.00;100688.69;6240437;23;20020;-86
2022/01/10 02:09:30;;;;;;;51.33;30.02;;;;;;;0.37;100.00;100695.84;6217048;23;20343;-87
2022/01/10 02:11:56;;;;;;;48.95;29.65;;;;;;;0.38;100.00;100693.13;6243478;22;20074;-87
2022/01/10 02:14:27;;;;;;;46.65;29.08;;;;;;;0.37;100.00;100696.69;6217631;23;20066;-87
2022/01/10 02:16:56;;;;;;;52.20;32.80;;;;;;;0.36;100.00;100704.72;6267604;22;20474;-87
2022/01/10 02:19:36;;;;;;;55.53;30.13;;;;;;;0.36;100.00;100720.56;6193912;23;20500;-87
2022/01/10 02:22:09;;;;;;;51.47;32.20;;;;;;;0.34;100.00;100717.16;6216691;23;20020;-87
2022/01/10 02:24:37;;;;;;;48.35;29.52;;;;;;;0.30;100.00;100713.03;6267644;22;20477;-87
2022/01/10 02:27:11;;;;;;;45.95;28.27;;;;;;;0.25;100.00;100717.78;6216807;23;20016;-88
2022/01/10 02:29:36;;;;;;;55.05;31.95;;;;;;;0.25;100.00;100723.03;6266854;22;20339;-88
2022/01/10 02:32:06;;;;;;;48.47;28.73;;;;;;;0.26;100.00;100719.44;6216139;23;20027;-87
2022/01/10 02:34:38;;;;;;;54.40;32.28;;;;;;;0.16;100.00;100722.69;6241239;22;20038;-87
2022/01/10 02:37:08;;;;;;;52.22;29.00;;;;;;;0.03;100.00;100729.72;6242308;23;20016;-87
2022/01/10 02:39:36;;;;;;;54.35;30.33;;;;;;;0.12;100.00;100734.41;6214112;22;20012;-87
2022/01/10 02:42:09;;;;;;;52.30;30.17;;;;;;;0.09;100.00;100734.59;6243111;23;20027;-86
2022/01/10 02:44:35;;;;;;;52.83;33.30;;;;;;;0.01;100.00;100746.59;6244576;22;20023;-86
2022/01/10 02:47:03;;;;;;;50.72;32.40;;;;;;;-0.04;100.00;100746.88;6218998;23;20081;-87
2022/01/10 02:49:32;;;;;;;54.00;33.78;;;;;;;-0.02;100.00;100750.28;6242653;22;20008;-88
2022/01/10 02:52:03;;;;;;;69.55;40.53;;;;;;;-0.02;100.00;100748.47;6241029;23;20197;-87
2022/01/10 02:54:34;;;;;;;50.22;28.10;;;;;;;-0.25;100.00;100742.00;6241156;22;20016;-87
2022/01/10 02:57:03;;;;;;;63.25;39.35;;;;;;;-0.18;100.00;100750.38;6217245;23;20020;-87
2022/01/10 02:59:37;;;;;;;63.30;37.42;;;;;;;-0.12;100.00;100754.41;6216385;22;20013;-86
2022/01/10 03:02:03;;;;;;;55.72;36.78;;;;;;;-0.14;100.00;100759.81;6192025;23;20020;-87
2022/01/10 03:04:35;;;;;;;63.60;40.75;;;;;;;-0.13;100.00;100772.03;6266262;22;20051;-87
2022/01/10 03:07:00;;;;;;;56.33;32.40;;;;;;;-0.16;100.00;100774.88;6242267;22;20020;-86
2022/01/10 03:09:27;;;;;;;51.60;33.40;;;;;;;-0.20;100.00;100780.44;6216080;22;20501;-86
2022/01/10 03:11:56;;;;;;;59.90;36.88;;;;;;;-0.22;100.00;100783.19;6216279;23;20459;-86
2022/01/10 03:14:22;;;;;;;56.55;35.63;;;;;;;-0.30;100.00;100791.56;6216727;23;20016;-87
2022/01/10 03:17:00;;;;;;;61.22;37.53;;;;;;;-0.33;100.00;100786.47;6215686;22;20023;-86
2022/01/10 03:19:28;;;;;;;62.63;36.40;;;;;;;-0.32;100.00;100803.97;6240766;22;20016;-86
2022/01/10 03:22:00;;;;;;;60.47;38.28;;;;;;;-0.31;100.00;100799.56;6216675;23;20012;-86
2022/01/10 03:24:26;;;;;;;57.58;35.70;;;;;;;-0.34;100.00;100803.25;6240372;22;20023;-87
2022/01/10 03:27:11;;;;;;;54.70;34.17;;;;;;;-0.40;100.00;100802.75;6216320;23;20016;-87
2022/01/10 03:29:47;;;;;;;61.55;39.05;;;;;;;-0.35;100.00;100812.06;6240356;22;20484;-87
2022/01/10 03:32:26;;;;;;;54.72;29.52;;;;;;;-0.50;100.00;100813.88;6216411;23;20027;-87
2022/01/10 03:35:05;;;;;;;59.90;32.70;;;;;;;-0.57;100.00;100831.00;6240712;23;20044;-86
2022/01/10 03:37:31;;;;;;;59.60;37.63;;;;;;;-0.58;100.00;100824.00;6215951;22;20012;-86
2022/01/10 03:39:58;;;;;;;65.15;40.63;;;;;;;-0.42;100.00;100823.09;6216405;23;20023;-86
2022/01/10 03:42:28;;;;;;;59.63;38.90;;;;;;;-0.43;100.00;100822.28;6242052;22;20099;-86
2022/01/10 03:44:57;;;;;;;68.10;41.13;;;;;;;-0.44;100.00;100825.81;6215994;23;20023;-86
2022/01/10 03:47:26;;;;;;;70.55;42.05;;;;;;;-0.39;100.00;100847.50;6241982;23;20067;-86
2022/01/10 03:49:53;;;;;;;66.88;45.40;;;;;;;-0.46;100.00;100851.47;6240772;22;20016;-85
2022/01/10 03:52:20;;;;;;;67.47;42.92;;;;;;;-0.47;100.00;100853.22;6239584;23;20016;-86
2022/01/10 03:54:45;;;;;;;67.90;43.65;;;;;;;-0.41;100.00;100846.72;6264227;22;20015;-86
2022/01/10 03:57:27;;;;;;;58.47;39.00;;;;;;;-0.48;100.00;100850.69;6214356;23;20454;-86
2022/01/10 03:59:57;;;;;;;60.53;40.72;;;;;;;-0.53;100.00;100855.38;6240678;23;20028;-86
2022/01/10 04:02:30;;;;;;;59.92;38.28;;;;;;;-0.59;100.00;100859.22;6216049;23;20360;-86
2022/01/10 04:04:56;;;;;;;79.03;45.50;;;;;;;-0.51;100.00;100866.69;6241315;22;20015;-86
2022/01/10 04:07:25;;;;;;;65.60;42.28;;;;;;;-0.57;100.00;100869.69;6216557;23;20020;-86
2022/01/10 04:09:51;;;;;;;68.80;41.58;;;;;;;-0.61;100.00;100873.44;6240649;22;20687;-86
2022/01/10 04:12:18;;;;;;;68.22;44.15;;;;;;;-0.59;100.00;100874.22;6241986;22;20043;-86
2022/01/10 04:14:51;;;;;;;63.03;39.97;;;;;;;-0.59;100.00;100879.47;6241438;22;20012;-87
2022/01/10 04:17:20;;;;;;;64.38;40.72;;;;;;;-0.62;100.00;100890.19;6241924;23;20066;-87
2022/01/10 04:19:47;;;;;;;67.43;42.45;;;;;;;-0.60;100.00;100896.25;6238465;22;20020;-87
2022/01/10 04:22:14;;;;;;;62.33;38.80;;;;;;;-0.66;100.00;100904.47;6238501;23;20095;-86
2022/01/10 04:24:40;;;;;;;61.17;38.40;;;;;;;-0.64;100.00;100905.25;6214324;22;20016;-86
2022/01/10 04:27:11;;;;;;;64.53;42.10;;;;;;;-0.60;100.00;100915.53;6240370;22;20481;-86
2022/01/10 04:29:43;;;;;;;66.55;46.13;;;;;;;-0.68;100.00;100923.88;6214963;22;20443;-87
2022/01/10 04:32:11;;;;;;;72.75;44.88;;;;;;;-0.75;100.00;100934.84;6236428;23;20024;-87
2022/01/10 04:34:40;;;;;;;66.03;44.00;;;;;;;-0.68;100.00;100947.59;6236681;22;20454;-89
2022/01/10 04:37:06;;;;;;;74.25;44.63;;;;;;;-0.68;100.00;100944.13;6213370;23;20015;-87
2022/01/10 04:39:33;;;;;;;68.00;43.80;;;;;;;-0.71;100.00;100955.69;6211792;22;20062;-87
2022/01/10 04:42:04;;;;;;;76.15;43.95;;;;;;;-0.72;100.00;100961.03;6236607;23;20024;-87
2022/01/10 04:44:36;;;;;;;70.28;42.05;;;;;;;-0.73;100.00;100973.38;6211192;22;20066;-87
2022/01/10 04:47:03;;;;;;;73.88;46.13;;;;;;;-0.70;100.00;100967.91;6237717;23;20099;-87
2022/01/10 04:49:41;;;;;;;71.30;43.70;;;;;;;-0.70;100.00;100972.34;6235797;22;20046;-86
2022/01/10 04:52:15;;;;;;;70.88;47.13;;;;;;;-0.73;100.00;100980.44;6213894;23;20043;-87
2022/01/10 04:54:52;;;;;;;73.53;45.60;;;;;;;-0.78;100.00;100996.50;6213045;22;20020;-86
2022/01/10 04:57:29;;;;;;;73.78;47.28;;;;;;;-0.75;100.00;100991.06;6213970;23;20015;-86
2022/01/10 04:59:54;;;;;;;83.03;49.40;;;;;;;-0.78;100.00;100993.84;6239961;23;20035;-86
2022/01/10 05:02:20;;;;;;;81.55;48.17;;;;;;;-0.77;100.00;101008.75;6241007;23;20012;-86
2022/01/10 05:04:45;;;;;;;79.13;46.97;;;;;;;-0.75;100.00;101011.28;6215511;22;20366;-86
2022/01/10 05:07:11;;;;;;;77.40;46.30;;;;;;;-0.81;100.00;101017.75;6214184;23;20027;-86
2022/01/10 05:09:39;;;;;;;70.80;46.83;;;;;;;-0.81;100.00;101015.09;6238245;22;20012;-86
2022/01/10 05:12:26;;;;;;;82.10;45.58;;;;;;;-0.84;100.00;101017.91;6237141;22;20419;-86
2022/01/10 05:15:04;;;;;;;98.80;50.50;;;;;;;-0.82;100.00;101025.75;6238145;22;20024;-85
2022/01/10 05:17:30;;;;;;;212.20;64.25;;;;;;;-0.82;100.00;101023.13;6238138;22;20072;-86
2022/01/10 05:19:56;;;;;;;335.20;81.75;;;;;;;-0.81;100.00;101037.97;6236247;23;20020;-86
2022/01/10 05:22:24;;;;;;;299.20;95.15;;;;;;;-0.76;100.00;101036.78;6212646;23;20088;-85
2022/01/10 05:24:50;;;;;;;312.42;104.95;;;;;;;-0.71;100.00;101039.19;6261878;22;21215;-85
2022/01/10 05:27:22;;;;;;;439.02;118.20;;;;;;;-0.68;100.00;101049.56;6240277;22;20009;-86
2022/01/10 05:29:58;;;;;;;410.23;117.57;;;;;;;-0.69;100.00;101059.25;6236503;22;20671;-85
2022/01/10 05:32:23;;;;;;;461.50;104.53;;;;;;;-0.71;100.00;101063.75;6240971;22;20020;-87
2022/01/10 05:34:48;;;;;;;560.78;127.07;;;;;;;-0.67;100.00;101067.06;6214931;22;20027;-87
2022/01/10 05:37:14;;;;;;;393.95;129.60;;;;;;;-0.71;100.00;101070.81;6239655;22;20089;-86
2022/01/10 05:39:39;;;;;;;431.85;128.38;;;;;;;-0.69;100.00;101077.69;6237432;22;20346;-86
2022/01/10 05:42:05;;;;;;;350.25;103.82;;;;;;;-0.68;100.00;101086.44;6239261;22;20370;-88
2022/01/10 05:44:30;;;;;;;371.00;102.47;;;;;;;-0.69;100.00;101088.25;6258384;22;20020;-87
2022/01/10 05:46:59;;;;;;;537.13;142.70;;;;;;;-0.65;100.00;101085.44;6207627;23;20024;-86
2022/01/10 05:49:32;;;;;;;458.20;135.97;;;;;;;-0.63;100.00;101089.69;6235695;23;20048;-88
2022/01/10 05:51:57;;;;;;;566.40;159.73;;;;;;;-0.68;100.00;101092.56;6234619;22;20020;-86
2022/01/10 05:54:23;;;;;;;358.88;119.57;;;;;;;-0.66;100.00;101099.53;6263678;22;20093;-87
2022/01/10 05:56:48;;;;;;;462.48;127.38;;;;;;;-0.66;100.00;101096.88;6235549;22;20085;-88
2022/01/10 05:59:13;;;;;;;523.38;135.88;;;;;;;-0.64;100.00;101102.94;6234627;22;20020;-87
2022/01/10 06:01:39;;;;;;;518.08;150.70;;;;;;;-0.66;100.00;101110.06;6211757;22;20036;-85
2022/01/10 06:04:04;;;;;;;593.33;157.43;;;;;;;-0.67;100.00;101111.84;6236294;23;20363;-88
2022/01/10 06:06:33;;;;;;;397.10;129.48;;;;;;;-0.66;100.00;101115.34;6234109;23;20438;-88
2022/01/10 06:08:58;;;;;;;397.17;136.77;;;;;;;-0.73;100.00;101120.94;6208387;23;20016;-87
2022/01/10 06:11:24;;;;;;;576.88;148.80;;;;;;;-0.74;100.00;101119.25;6231524;22;20131;-88
2022/01/10 06:13:49;;;;;;;453.00;130.00;;;;;;;-0.78;100.00;101127.41;6232041;22;20111;-89
2022/01/10 06:16:16;;;;;;;409.70;131.13;;;;;;;-0.75;100.00;101130.75;6233990;23;20354;-87
2022/01/10 06:18:41;;;;;;;420.42;123.72;;;;;;;-0.76;100.00;101144.00;6256156;22;20083;-86
2022/01/10 06:21:07;;;;;;;373.90;109.07;;;;;;;-0.80;100.00;101132.78;6235555;22;20091;-88
2022/01/10 06:23:32;;;;;;;365.83;130.27;;;;;;;-0.78;100.00;101146.69;6235821;22;20016;-87
2022/01/10 06:25:59;;;;;;;366.55;138.48;;;;;;;-0.71;100.00;101156.00;6232974;23;20489;-87
2022/01/10 06:28:26;;;;;;;366.45;114.22;;;;;;;-0.76;100.00;101165.09;6236006;23;20042;-86
2022/01/10 06:30:52;;;;;;;377.52;134.50;;;;;;;-0.72;100.00;101167.47;6210184;22;20024;-87
2022/01/10 06:33:18;;;;;;;411.67;138.18;;;;;;;-0.66;100.00;101170.69;6262222;22;20031;-86
2022/01/10 06:35:43;;;;;;;416.98;142.15;;;;;;;-0.67;100.00;101177.75;6238560;22;20346;-87
2022/01/10 06:38:10;;;;;;;503.77;152.85;;;;;;;-0.71;100.00;101187.63;6241734;22;20008;-88
2022/01/10 06:40:35;;;;;;;612.97;167.90;;;;;;;-0.68;100.00;101190.09;6224366;22;20008;-89
2022/01/10 06:43:01;;;;;;;427.73;137.57;;;;;;;-0.72;100.00;101191.19;6212072;23;20065;-86
2022/01/10 06:45:26;;;;;;;704.63;195.43;;;;;;;-0.71;100.00;101203.44;6261510;22;20331;-87
2022/01/10 06:47:53;;;;;;;722.80;203.10;;;;;;;-0.71;100.00;101199.94;6261501;22;20094;-88
2022/01/10 06:50:18;;;;;;;585.85;183.20;;;;;;;-0.77;100.00;101198.50;6210546;23;20457;-87
2022/01/10 06:52:44;;;;;;;518.10;163.32;;;;;;;-0.73;100.00;101215.84;6209686;22;20091;-88
2022/01/10 06:55:09;;;;;;;442.88;120.88;;;;;;;-0.76;100.00;101220.44;6244172;22;20062;-88
2022/01/10 06:57:36;;;;;;;420.83;145.77;;;;;;;-0.73;100.00;101217.63;6241429;22;20455;-88
2022/01/10 07:00:05;;;;;;;485.98;142.52;;;;;;;-0.77;100.00;101226.63;6243082;22;20096;-88
2022/01/10 07:02:30;;;;;;;379.70;139.88;;;;;;;-0.80;100.00;101235.56;6245400;23;20027;-87
2022/01/10 07:04:55;;;;;;;402.80;134.90;;;;;;;-0.81;100.00;101233.84;6275456;22;20012;-87
2022/01/10 07:07:21;;;;;;;413.83;127.07;;;;;;;-0.81;100.00;101249.63;6251269;22;20016;-87
2022/01/10 07:09:47;;;;;;;432.25;127.90;;;;;;;-0.79;100.00;101260.97;6250540;22;20397;-87
2022/01/10 07:12:13;;;;;;;451.83;145.15;;;;;;;-0.77;100.00;101266.16;6232423;23;20450;-86
2022/01/10 07:14:39;;;;;;;461.40;155.43;;;;;;;-0.73;100.00;101258.00;6242174;22;20031;-87
2022/01/10 07:17:04;;;;;;;471.95;155.45;;;;;;;-0.75;100.00;101270.44;6262648;22;20039;-87
2022/01/10 07:19:30;;;;;;;416.15;160.48;;;;;;;-0.74;100.00;101276.56;6234312;23;20012;-87
2022/01/10 07:21:55;;;;;;;646.83;192.27;;;;;;;-0.72;100.00;101288.72;6234134;22;20020;-87
2022/01/10 07:24:21;;;;;;;463.02;141.65;;;;;;;-0.71;100.00;101294.84;6260578;22;20090;-87
2022/01/10 07:26:46;;;;;;;436.92;148.50;;;;;;;-0.74;100.00;101306.38;6236357;22;20032;-87
2022/01/10 07:29:13;;;;;;;584.08;165.00;;;;;;;-0.69;100.00;101307.00;6235146;23;20020;-87
2022/01/10 07:31:40;;;;;;;598.45;172.68;;;;;;;-0.74;100.00;101319.56;6208582;22;20027;-87
2022/01/10 07:34:10;;;;;;;544.88;164.98;;;;;;;-0.72;100.00;101315.06;6238872;23;20016;-87
2022/01/10 07:36:37;;;;;;;479.80;142.30;;;;;;;-0.76;100.00;101313.50;6236812;22;20053;-87
2022/01/10 07:39:03;;;;;;;492.30;142.68;;;;;;;-0.81;100.00;101318.16;6236057;22;20012;-87
2022/01/10 07:41:29;;;;;;;558.75;148.95;;;;;;;-0.80;100.00;101327.78;6235073;23;20020;-87
2022/01/10 07:43:56;;;;;;;374.48;126.35;;;;;;;-0.85;100.00;101332.44;6210359;22;20039;-87
2022/01/10 07:46:23;;;;;;;393.92;129.95;;;;;;;-0.89;100.00;101340.56;6212929;22;20012;-87
2022/01/10 07:48:49;;;;;;;706.67;194.38;;;;;;;-0.82;100.00;101352.50;6235161;22;20032;-87
2022/01/10 07:51:15;;;;;;;444.92;147.40;;;;;;;-0.82;100.00;101358.63;6234318;22;20056;-87
2022/01/10 07:53:41;;;;;;;496.38;150.80;;;;;;;-0.89;100.00;101364.28;6232433;22;20020;-86
2022/01/10 07:56:07;;;;;;;515.58;162.95;;;;;;;-0.86;100.00;101378.19;6235974;23;20016;-87
2022/01/10 07:58:37;;;;;;;406.63;132.48;;;;;;;-0.85;100.00;101379.03;6235453;22;20023;-86
2022/01/10 08:01:03;;;;;;;547.03;152.10;;;;;;;-0.96;100.00;101376.91;6237492;22;20042;-87
2022/01/10 08:03:29;;;;;;;526.33;141.95;;;;;;;-0.97;100.00;101372.59;6235470;23;20032;-86
2022/01/10 08:05:55;;;;;;;515.92;141.15;;;;;;;-0.97;100.00;101380.50;6232965;23;20018;-88
2022/01/10 08:08:21;;;;;;;463.58;146.93;;;;;;;-1.01;100.00;101394.72;6235236;22;20091;-87
2022/01/10 08:10:46;;;;;;;432.60;125.65;;;;;;;-0.99;100.00;101398.13;6233718;22;20027;-87
2022/01/10 08:13:12;;;;;;;404.00;124.72;;;;;;;-0.99;100.00;101408.69;6234721;23;20107;-87
2022/01/10 08:15:37;;;;;;;374.20;132.68;;;;;;;-1.03;100.00;101408.00;6260674;22;20035;-88
2022/01/10 08:18:06;;;;;;;477.45;120.38;;;;;;;-1.01;100.00;101406.09;6236139;22;20513;-87
2022/01/10 08:20:31;;;;;;;390.95;136.25;;;;;;;-0.95;100.00;101413.75;6183195;23;20019;-87
2022/01/10 08:22:56;;;;;;;486.83;134.82;;;;;;;-0.96;100.00;101416.44;6208549;22;20329;-88
2022/01/10 08:25:22;;;;;;;492.73;147.70;;;;;;;-1.00;100.00;101418.38;6234840;23;20036;-87
2022/01/10 08:27:47;;;;;;;433.92;125.75;;;;;;;-0.94;100.00;101417.22;6233320;22;20019;-87
2022/01/10 08:30:13;;;;;;;360.27;136.45;;;;;;;-0.97;100.00;101433.19;6236819;22;20451;-87
2022/01/10 08:32:38;;;;;;;416.08;131.75;;;;;;;-0.98;100.00;101442.88;6259226;22;20429;-87
2022/01/10 08:35:04;;;;;;;343.85;112.07;;;;;;;-0.98;100.00;101453.41;6235981;23;20044;-87
2022/01/10 08:37:30;;;;;;;472.35;150.63;;;;;;;-0.97;100.00;101454.25;6234055;22;20016;-87
2022/01/10 08:39:56;;;;;;;450.00;155.05;;;;;;;-0.93;100.00;101455.81;6235651;22;20012;-86
2022/01/10 08:42:23;;;;;;;487.15;155.10;;;;;;;-0.88;100.00;101456.44;6236868;23;20090;-86
2022/01/10 08:44:49;;;;;;;446.88;132.57;;;;;;;-0.94;100.00;101459.38;6259073;22;20046;-86
2022/01/10 08:47:15;;;;;;;442.20;135.55;;;;;;;-1.00;100.00;101457.91;6235971;22;20019;-87
2022/01/10 08:49:41;;;;;;;467.08;137.45;;;;;;;-1.01;100.00;101466.69;6232724;23;20012;-86
2022/01/10 08:52:07;;;;;;;501.08;148.32;;;;;;;-0.97;100.00;101465.66;6236576;22;20094;-86
2022/01/10 08:54:32;;;;;;;515.45;142.43;;;;;;;-0.96;100.00;101477.88;6235241;22;20019;-87
2022/01/10 08:56:58;;;;;;;490.92;152.85;;;;;;;-1.00;100.00;101486.03;6259823;22;20020;-86
2022/01/10 08:59:24;;;;;;;544.20;140.90;;;;;;;-0.98;100.00;101484.16;6234171;23;20027;-87
2022/01/10 09:01:50;;;;;;;493.65;151.98;;;;;;;-0.93;100.00;101493.53;6208575;22;20397;-87
2022/01/10 09:04:16;;;;;;;403.58;138.52;;;;;;;-0.91;100.00;101490.84;6260404;22;20015;-86
2022/01/10 09:06:46;;;;;;;426.40;140.00;;;;;;;-0.88;100.00;101500.41;6235609;22;20020;-86
2022/01/10 09:09:12;;;;;;;428.85;134.45;;;;;;;-0.89;100.00;101504.81;6234820;23;20024;-87
2022/01/10 09:11:38;;;;;;;489.08;148.60;;;;;;;-0.83;100.00;101509.78;6234740;22;20066;-87
2022/01/10 09:14:04;;;;;;;384.50;130.52;;;;;;;-0.82;100.00;101510.63;6235205;23;20020;-87
2022/01/10 09:16:30;;;;;;;368.23;130.73;;;;;;;-0.83;100.00;101514.22;6237799;22;20015;-87
2022/01/10 09:18:55;;;;;;;404.73;139.90;;;;;;;-0.79;100.00;101510.47;6235741;22;20016;-87
2022/01/10 09:21:22;;;;;;;354.00;119.47;;;;;;;-0.84;100.00;101515.97;6234227;23;20020;-88
2022/01/10 09:23:48;;;;;;;474.17;142.90;;;;;;;-0.82;100.00;101522.03;6209917;22;20414;-87
2022/01/10 09:26:13;;;;;;;334.38;98.60;;;;;;;-0.84;100.00;101529.13;6237028;22;20070;-87
2022/01/10 09:28:39;;;;;;;524.60;152.55;;;;;;;-0.81;100.00;101529.00;6209075;22;20031;-87
2022/01/10 09:31:04;;;;;;;430.17;135.82;;;;;;;-0.78;100.00;101544.66;6236738;23;20196;-87
2022/01/10 09:33:30;;;;;;;547.05;160.50;;;;;;;-0.74;100.00;101546.25;6236877;22;20051;-86
2022/01/10 09:35:55;;;;;;;477.52;151.00;;;;;;;-0.68;100.00;101547.72;6232499;22;20016;-87
2022/01/10 09:38:21;;;;;;;397.77;127.85;;;;;;;-0.69;100.00;101561.84;6235034;23;20044;-87
2022/01/10 09:40:46;;;;;;;527.92;155.05;;;;;;;-0.64;100.00;101566.88;6207773;22;20016;-88
2022/01/10 09:43:12;;;;;;;453.40;137.23;;;;;;;-0.67;100.00;101567.88;6210382;23;20513;-87
2022/01/10 09:45:38;;;;;;;423.70;133.07;;;;;;;-0.70;100.00;101582.06;6208693;22;20334;-87
2022/01/10 09:48:04;;;;;;;438.63;137.05;;;;;;;-0.71;100.00;101577.72;6234277;23;20070;-87
2022/01/10 09:50:30;;;;;;;451.05;143.10;;;;;;;-0.65;100.00;101587.13;6234949;23;20495;-88
2022/01/10 09:52:57;;;;;;;493.92;145.77;;;;;;;-0.64;100.00;101588.81;6235274;22;20043;-87
2022/01/10 09:55:23;;;;;;;448.40;123.68;;;;;;;-0.66;100.00;101589.81;6236344;22;20107;-87
2022/01/10 09:57:55;;;;;;;452.63;123.00;;;;;;;-0.68;100.00;101587.28;6260200;22;20068;-87
2022/01/10 10:00:21;;;;;;;431.65;132.25;;;;;;;-0.68;100.00;101585.47;6209189;23;20012;-86
2022/01/10 10:02:48;;;;;;;570.63;150.75;;;;;;;-0.64;100.00;101585.34;6232859;22;20764;-86
2022/01/10 10:05:14;;;;;;;601.63;156.65;;;;;;;-0.62;100.00;101588.75;6235410;23;20328;-87
2022/01/10 10:07:40;;;;;;;501.10;138.20;;;;;;;-0.57;100.00;101597.31;6208668;22;20031;-87
2022/01/10 10:10:11;;;;;;;449.67;149.98;;;;;;;-0.54;100.00;101602.44;6233551;23;20038;-86
2022/01/10 10:12:42;;;;;;;404.80;128.85;;;;;;;-0.57;100.00;101605.22;6233720;22;20051;-87
2022/01/10 10:15:09;;;;;;;547.67;138.43;;;;;;;-0.58;100.00;101608.75;6233469;23;20020;-87
2022/01/10 10:17:37;;;;;;;525.28;138.43;;;;;;;-0.51;100.00;101608.41;6209846;23;20145;-87
2022/01/10 10:20:15;;;;;;;385.77;110.32;;;;;;;-0.49;100.00;101610.97;6260519;22;20012;-87
2022/01/10 10:22:43;;;;;;;414.58;125.05;;;;;;;-0.49;100.00;101610.97;6236234;22;20016;-87
2022/01/10 10:25:10;;;;;;;403.83;117.60;;;;;;;-0.47;100.00;101619.66;6235270;23;20086;-86
2022/01/10 10:27:41;;;;;;;527.10;154.23;;;;;;;-0.42;100.00;101620.31;6238343;22;20023;-87
2022/01/10 10:30:14;;;;;;;523.78;142.48;;;;;;;-0.40;100.00;101623.72;6235734;23;20030;-87
2022/01/10 10:32:40;;;;;;;483.98;149.20;;;;;;;-0.34;100.00;101620.78;6236751;22;20024;-88
2022/01/10 10:35:07;;;;;;;522.83;142.52;;;;;;;-0.33;100.00;101630.41;6236408;23;20469;-87
2022/01/10 10:37:41;;;;;;;551.92;143.05;;;;;;;-0.32;100.00;101634.75;6236548;23;20016;-87
2022/01/10 10:40:10;;;;;;;520.70;144.52;;;;;;;-0.28;100.00;101644.22;6213450;23;20099;-87
2022/01/10 10:42:39;;;;;;;479.77;141.98;;;;;;;-0.22;100.00;101650.16;6211952;23;20016;-87
2022/01/10 10:45:11;;;;;;;436.92;150.45;;;;;;;-0.18;100.00;101651.69;6260820;22;20095;-86
2022/01/10 10:47:40;;;;;;;524.38;142.38;;;;;;;-0.14;100.00;101650.63;6262021;22;20015;-87
2022/01/10 10:50:07;;;;;;;541.25;173.30;;;;;;;-0.07;100.00;101662.59;6260352;22;20016;-87
2022/01/10 10:52:34;;;;;;;512.85;165.30;;;;;;;-0.08;100.00;101656.47;6236049;23;20027;-86
2022/01/10 10:55:14;;;;;;;541.53;160.27;;;;;;;-0.02;100.00;101666.72;6235825;22;20028;-86
2022/01/10 10:57:43;;;;;;;504.90;162.38;;;;;;;0.04;100.00;101659.44;6235997;22;20019;-86
2022/01/10 11:00:14;;;;;;;471.53;173.13;;;;;;;0.10;100.00;101665.25;6210721;23;20295;-85
2022/01/10 11:02:40;;;;;;;416.98;122.68;;;;;;;0.03;100.00;101665.63;6242156;23;20058;-85
2022/01/10 11:05:07;;;;;;;434.00;147.98;;;;;;;0.11;100.00;101672.22;6266954;22;20106;-85
2022/01/10 11:07:34;;;;;;;428.60;148.07;;;;;;;0.14;100.00;101676.50;6242554;23;20431;-86
2022/01/10 11:10:02;;;;;;;396.85;146.43;;;;;;;0.14;100.00;101672.06;6215581;23;20740;-86
2022/01/10 11:12:33;;;;;;;412.83;158.60;;;;;;;0.24;100.00;101682.22;6241439;23;20020;-86